Portada
METAR-TAF:

METAR-TAF

Aeropuertos :

Aeropuerto Internacional de Sunan

Pionyang, Corea del Norte

latitud: 39-02N, longitud: 125-47E, altitud: 36 m

METAR: falta

Hora: 11:19 (02:19 UTC)

Pronóstico

El informe se hizo hace 5 horas y 29 minutos, a las 20:50 UTC
Pronóstico válido del 29 a las 00 UTC al 29 a las 24 UTC
Viento 8 kt del sur
Visibilidad 10 km o más
sin nubes por debajo de 1500 m y sin presencia de cumulonimbus.
Temporalmente
del 29 a las 02 UTC al 29 a las 08 UTC
Nubes dispersas a una altura de 2300 ft

TAF: ZKPY 282050Z 2900/2924 19004MPS CAVOK TX26/2906Z TN14/2921Z TEMPO 2902/2908 SCT023

Observaciones y pronósticos meteorológicos de más de 4000 aeropuertos (mensajes METAR y TAF).

Los puntos amarillos y rojos representan las estaciones disponibles.

Ponga el ratón en el punto deseado para ver el nombre de la estación.

Haga clic para ver las observaciones y los pronósticos meteorológicos.

Para cambiar el mapa : haga clic en los botones verdes con una cruz de color negro para hacer un zoom, en el botón verde con un guión para alejar o en las flechas verdes para mapas adyacentes.


METAR-TAF: